sensor_id;sensor_type;location;lat;lon;timestamp;pressure;altitude;pressure_sealevel;temperature;humidity
69200;BME280;56313;49.804;9.952;2022-08-19T00:02:13;98743.53;;;20.77;69.02
69200;BME280;56313;49.804;9.952;2022-08-19T00:04:41;98741.94;;;20.76;68.89
69200;BME280;56313;49.804;9.952;2022-08-19T00:07:07;98748.97;;;20.71;69.15
69200;BME280;56313;49.804;9.952;2022-08-19T00:09:32;98750.38;;;20.73;68.84
69200;BME280;56313;49.804;9.952;2022-08-19T00:11:58;98745.97;;;20.79;68.89
69200;BME280;56313;49.804;9.952;2022-08-19T00:14:24;98737.88;;;20.74;69.12
69200;BME280;56313;49.804;9.952;2022-08-19T00:16:56;98736.25;;;20.73;68.85
69200;BME280;56313;49.804;9.952;2022-08-19T00:19:22;98730.22;;;20.66;69.26
69200;BME280;56313;49.804;9.952;2022-08-19T00:21:48;98719.91;;;20.57;69.25
69200;BME280;56313;49.804;9.952;2022-08-19T00:24:13;98721.91;;;20.43;69.79
69200;BME280;56313;49.804;9.952;2022-08-19T00:26:42;98716.53;;;20.50;69.66
69200;BME280;56313;49.804;9.952;2022-08-19T00:29:11;98716.59;;;20.43;69.90
69200;BME280;56313;49.804;9.952;2022-08-19T00:31:37;98721.84;;;20.50;69.31
69200;BME280;56313;49.804;9.952;2022-08-19T00:34:02;98718.69;;;20.41;69.55
69200;BME280;56313;49.804;9.952;2022-08-19T00:36:29;98719.56;;;20.35;69.80
69200;BME280;56313;49.804;9.952;2022-08-19T00:38:58;98715.22;;;20.41;69.52
69200;BME280;56313;49.804;9.952;2022-08-19T00:41:24;98709.38;;;20.32;69.67
69200;BME280;56313;49.804;9.952;2022-08-19T00:44:07;98713.22;;;20.36;69.51
69200;BME280;56313;49.804;9.952;2022-08-19T00:46:34;98710.09;;;20.39;69.35
69200;BME280;56313;49.804;9.952;2022-08-19T00:49:02;98711.00;;;20.33;69.26
69200;BME280;56313;49.804;9.952;2022-08-19T00:51:30;98705.78;;;20.26;69.61
69200;BME280;56313;49.804;9.952;2022-08-19T00:53:57;98711.66;;;20.16;69.83
69200;BME280;56313;49.804;9.952;2022-08-19T00:56:23;98713.34;;;20.10;69.69
69200;BME280;56313;49.804;9.952;2022-08-19T00:58:51;98708.84;;;20.72;69.99
69200;BME280;56313;49.804;9.952;2022-08-19T01:01:16;98712.59;;;20.95;67.95
69200;BME280;56313;49.804;9.952;2022-08-19T01:03:41;98712.31;;;20.42;68.18
69200;BME280;56313;49.804;9.952;2022-08-19T01:06:07;98702.09;;;20.27;68.79
69200;BME280;56313;49.804;9.952;2022-08-19T01:08:32;98710.31;;;20.07;69.57
69200;BME280;56313;49.804;9.952;2022-08-19T01:10:58;98701.97;;;20.03;69.87
69200;BME280;56313;49.804;9.952;2022-08-19T01:13:25;98717.69;;;20.05;69.68
69200;BME280;56313;49.804;9.952;2022-08-19T01:15:55;98713.09;;;19.93;69.99
69200;BME280;56313;49.804;9.952;2022-08-19T01:18:21;98708.72;;;20.06;69.91
69200;BME280;56313;49.804;9.952;2022-08-19T01:20:47;98708.75;;;19.99;69.78
69200;BME280;56313;49.804;9.952;2022-08-19T01:23:13;98696.50;;;19.98;69.91
69200;BME280;56313;49.804;9.952;2022-08-19T01:25:41;98687.06;;;19.83;70.06
69200;BME280;56313;49.804;9.952;2022-08-19T01:28:08;98684.78;;;19.68;70.58
69200;BME280;56313;49.804;9.952;2022-08-19T01:30:39;98693.47;;;19.75;70.52
69200;BME280;56313;49.804;9.952;2022-08-19T01:33:04;98696.88;;;19.83;70.17
69200;BME280;56313;49.804;9.952;2022-08-19T01:35:30;98708.88;;;19.85;70.18
69200;BME280;56313;49.804;9.952;2022-08-19T01:38:01;98719.81;;;19.96;69.95
69200;BME280;56313;49.804;9.952;2022-08-19T01:40:31;98732.38;;;19.88;70.28
69200;BME280;56313;49.804;9.952;2022-08-19T01:42:57;98730.00;;;19.80;70.22
69200;BME280;56313;49.804;9.952;2022-08-19T01:45:24;98727.72;;;19.84;70.32
69200;BME280;56313;49.804;9.952;2022-08-19T01:47:50;98740.63;;;19.99;70.18
69200;BME280;56313;49.804;9.952;2022-08-19T01:50:15;98746.03;;;19.92;69.92
69200;BME280;56313;49.804;9.952;2022-08-19T01:52:41;98739.97;;;20.22;69.03
69200;BME280;56313;49.804;9.952;2022-08-19T01:55:08;98743.84;;;20.08;69.16
69200;BME280;56313;49.804;9.952;2022-08-19T01:57:34;98746.38;;;19.96;69.79
69200;BME280;56313;49.804;9.952;2022-08-19T02:00:00;98735.47;;;19.85;70.11
69200;BME280;56313;49.804;9.952;2022-08-19T02:02:27;98737.38;;;19.78;70.41
69200;BME280;56313;49.804;9.952;2022-08-19T02:04:52;98732.59;;;19.68;70.71
69200;BME280;56313;49.804;9.952;2022-08-19T02:07:20;98746.53;;;19.63;70.83
69200;BME280;56313;49.804;9.952;2022-08-19T02:09:49;98755.97;;;19.78;70.28
69200;BME280;56313;49.804;9.952;2022-08-19T02:12:14;98745.78;;;19.75;70.59
69200;BME280;56313;49.804;9.952;2022-08-19T02:14:41;98754.16;;;19.79;70.22
69200;BME280;56313;49.804;9.952;2022-08-19T02:17:06;98754.81;;;19.74;70.30
69200;BME280;56313;49.804;9.952;2022-08-19T02:19:32;98750.78;;;19.65;70.69
69200;BME280;56313;49.804;9.952;2022-08-19T02:21:57;98743.41;;;19.48;71.04
69200;BME280;56313;49.804;9.952;2022-08-19T02:24:23;98741.84;;;19.40;71.38
69200;BME280;56313;49.804;9.952;2022-08-19T02:26:48;98745.16;;;19.35;71.58
69200;BME280;56313;49.804;9.952;2022-08-19T02:29:13;98749.41;;;19.36;71.64
69200;BME280;56313;49.804;9.952;2022-08-19T02:31:38;98740.06;;;19.34;71.80
69200;BME280;56313;49.804;9.952;2022-08-19T02:34:04;98748.63;;;19.36;71.62
69200;BME280;56313;49.804;9.952;2022-08-19T02:36:29;98754.50;;;19.38;71.68
69200;BME280;56313;49.804;9.952;2022-08-19T02:38:55;98755.47;;;19.44;71.14
69200;BME280;56313;49.804;9.952;2022-08-19T02:41:22;98749.16;;;19.45;71.28
69200;BME280;56313;49.804;9.952;2022-08-19T02:43:47;98744.59;;;19.52;70.99
69200;BME280;56313;49.804;9.952;2022-08-19T02:48:46;98737.34;;;19.41;71.43
69200;BME280;56313;49.804;9.952;2022-08-19T02:51:15;98748.41;;;19.37;71.31
69200;BME280;56313;49.804;9.952;2022-08-19T02:53:41;98746.97;;;19.35;71.52
69200;BME280;56313;49.804;9.952;2022-08-19T02:56:06;98748.19;;;19.39;71.40
69200;BME280;56313;49.804;9.952;2022-08-19T02:58:32;98763.91;;;19.41;71.22
69200;BME280;56313;49.804;9.952;2022-08-19T03:00:58;98766.19;;;19.37;71.48
69200;BME280;56313;49.804;9.952;2022-08-19T03:03:23;98777.44;;;19.32;71.71
69200;BME280;56313;49.804;9.952;2022-08-19T03:05:48;98787.50;;;19.74;71.61
69200;BME280;56313;49.804;9.952;2022-08-19T03:08:14;98784.66;;;20.13;69.39
69200;BME280;56313;49.804;9.952;2022-08-19T03:10:40;98780.03;;;19.65;70.34
69200;BME280;56313;49.804;9.952;2022-08-19T03:13:07;98772.56;;;19.55;70.79
69200;BME280;56313;49.804;9.952;2022-08-19T03:15:33;98770.72;;;19.30;71.81
69200;BME280;56313;49.804;9.952;2022-08-19T03:17:59;98766.50;;;19.22;72.20
69200;BME280;56313;49.804;9.952;2022-08-19T03:20:24;98766.00;;;19.32;71.86
69200;BME280;56313;49.804;9.952;2022-08-19T03:22:50;98768.56;;;19.20;72.31
69200;BME280;56313;49.804;9.952;2022-08-19T03:25:16;98766.50;;;19.22;72.05
69200;BME280;56313;49.804;9.952;2022-08-19T03:27:42;98768.53;;;19.45;72.92
69200;BME280;56313;49.804;9.952;2022-08-19T03:30:07;98772.56;;;19.55;70.94
69200;BME280;56313;49.804;9.952;2022-08-19T03:32:32;98768.88;;;19.56;70.74
69200;BME280;56313;49.804;9.952;2022-08-19T03:34:58;98760.53;;;19.27;71.82
69200;BME280;56313;49.804;9.952;2022-08-19T03:37:23;98757.72;;;19.21;72.09
69200;BME280;56313;49.804;9.952;2022-08-19T03:39:48;98762.94;;;19.09;72.49
69200;BME280;56313;49.804;9.952;2022-08-19T03:42:14;98764.06;;;19.20;72.19
69200;BME280;56313;49.804;9.952;2022-08-19T03:44:40;98764.53;;;19.04;72.85
69200;BME280;56313;49.804;9.952;2022-08-19T03:47:07;98758.41;;;19.10;72.72
69200;BME280;56313;49.804;9.952;2022-08-19T03:49:32;98757.00;;;19.07;72.51
69200;BME280;56313;49.804;9.952;2022-08-19T03:52:00;98746.84;;;18.97;72.99
69200;BME280;56313;49.804;9.952;2022-08-19T03:54:26;98743.88;;;18.87;73.48
69200;BME280;56313;49.804;9.952;2022-08-19T03:56:52;98742.97;;;18.93;73.37
69200;BME280;56313;49.804;9.952;2022-08-19T03:59:23;98738.91;;;18.91;73.31
69200;BME280;56313;49.804;9.952;2022-08-19T04:01:50;98749.72;;;18.96;73.13
69200;BME280;56313;49.804;9.952;2022-08-19T04:04:15;98758.06;;;18.99;73.16
69200;BME280;56313;49.804;9.952;2022-08-19T04:06:40;98758.06;;;18.99;73.19
69200;BME280;56313;49.804;9.952;2022-08-19T04:09:07;98767.03;;;18.98;73.31
69200;BME280;56313;49.804;9.952;2022-08-19T04:11:34;98755.78;;;19.03;73.08
69200;BME280;56313;49.804;9.952;2022-08-19T04:14:00;98742.50;;;19.10;72.95
69200;BME280;56313;49.804;9.952;2022-08-19T04:16:28;98740.38;;;19.19;72.43
69200;BME280;56313;49.804;9.952;2022-08-19T04:18:54;98730.19;;;19.16;72.34
69200;BME280;56313;49.804;9.952;2022-08-19T04:21:20;98726.88;;;19.20;72.37
69200;BME280;56313;49.804;9.952;2022-08-19T04:23:46;98736.00;;;19.31;71.98
69200;BME280;56313;49.804;9.952;2022-08-19T04:26:13;98743.75;;;19.33;71.92
69200;BME280;56313;49.804;9.952;2022-08-19T04:28:39;98746.97;;;19.35;71.94
69200;BME280;56313;49.804;9.952;2022-08-19T04:31:04;98747.72;;;19.42;71.67
69200;BME280;56313;49.804;9.952;2022-08-19T04:33:29;98743.78;;;19.52;71.13
69200;BME280;56313;49.804;9.952;2022-08-19T04:35:54;98757.97;;;19.64;70.81
69200;BME280;56313;49.804;9.952;2022-08-19T04:38:20;98765.81;;;19.96;71.72
69200;BME280;56313;49.804;9.952;2022-08-19T04:40:50;98765.38;;;19.81;70.18
69200;BME280;56313;49.804;9.952;2022-08-19T04:43:34;98780.16;;;19.51;71.34
69200;BME280;56313;49.804;9.952;2022-08-19T04:46:11;98785.22;;;19.53;71.24
69200;BME280;56313;49.804;9.952;2022-08-19T04:48:37;98790.41;;;19.47;71.45
69200;BME280;56313;49.804;9.952;2022-08-19T04:51:05;98795.44;;;19.30;71.99
69200;BME280;56313;49.804;9.952;2022-08-19T04:53:32;98796.25;;;19.31;72.18
69200;BME280;56313;49.804;9.952;2022-08-19T04:55:59;98793.91;;;19.41;71.85
69200;BME280;56313;49.804;9.952;2022-08-19T04:58:27;98799.00;;;19.68;71.12
69200;BME280;56313;49.804;9.952;2022-08-19T05:00:52;98790.63;;;19.90;70.16
69200;BME280;56313;49.804;9.952;2022-08-19T05:03:18;98793.88;;;19.92;69.98
69200;BME280;56313;49.804;9.952;2022-08-19T05:05:44;98798.69;;;20.02;69.48
69200;BME280;56313;49.804;9.952;2022-08-19T05:08:10;98800.22;;;19.91;69.99
69200;BME280;56313;49.804;9.952;2022-08-19T05:10:36;98802.84;;;19.72;70.95
69200;BME280;56313;49.804;9.952;2022-08-19T05:13:02;98808.19;;;19.91;71.17
69200;BME280;56313;49.804;9.952;2022-08-19T05:15:28;98809.41;;;19.70;70.64
69200;BME280;56313;49.804;9.952;2022-08-19T05:17:53;98790.88;;;19.63;71.11
69200;BME280;56313;49.804;9.952;2022-08-19T05:20:37;98793.63;;;19.75;71.20
69200;BME280;56313;49.804;9.952;2022-08-19T05:23:21;98790.09;;;20.56;72.71
69200;BME280;56313;49.804;9.952;2022-08-19T05:25:46;98806.50;;;20.53;70.13
69200;BME280;56313;49.804;9.952;2022-08-19T05:28:12;98805.34;;;20.11;69.41
69200;BME280;56313;49.804;9.952;2022-08-19T05:30:40;98810.03;;;19.91;70.18
69200;BME280;56313;49.804;9.952;2022-08-19T05:33:06;98811.94;;;19.83;70.38
69200;BME280;56313;49.804;9.952;2022-08-19T05:35:33;98817.34;;;19.95;70.26
69200;BME280;56313;49.804;9.952;2022-08-19T05:37:58;98812.63;;;19.97;70.13
69200;BME280;56313;49.804;9.952;2022-08-19T05:40:23;98813.22;;;19.99;69.92
69200;BME280;56313;49.804;9.952;2022-08-19T05:42:48;98816.56;;;20.13;69.49
69200;BME280;56313;49.804;9.952;2022-08-19T05:45:14;98816.47;;;20.02;69.69
69200;BME280;56313;49.804;9.952;2022-08-19T05:47:39;98821.59;;;20.22;71.65
69200;BME280;56313;49.804;9.952;2022-08-19T05:50:05;98821.31;;;20.11;69.22
69200;BME280;56313;49.804;9.952;2022-08-19T05:52:30;98822.31;;;20.48;69.53
69200;BME280;56313;49.804;9.952;2022-08-19T05:54:55;98829.84;;;20.13;69.84
69200;BME280;56313;49.804;9.952;2022-08-19T05:57:21;98831.81;;;20.25;68.82
69200;BME280;56313;49.804;9.952;2022-08-19T05:59:46;98843.28;;;20.00;69.92
69200;BME280;56313;49.804;9.952;2022-08-19T06:02:13;98847.28;;;20.09;69.69
69200;BME280;56313;49.804;9.952;2022-08-19T06:04:39;98852.38;;;19.85;70.54
69200;BME280;56313;49.804;9.952;2022-08-19T06:07:07;98844.19;;;20.12;69.38
69200;BME280;56313;49.804;9.952;2022-08-19T06:09:32;98843.75;;;20.34;68.73
69200;BME280;56313;49.804;9.952;2022-08-19T06:11:58;98840.06;;;20.17;69.55
69200;BME280;56313;49.804;9.952;2022-08-19T06:14:26;98847.28;;;20.09;69.89
69200;BME280;56313;49.804;9.952;2022-08-19T06:16:51;98848.84;;;20.17;69.43
69200;BME280;56313;49.804;9.952;2022-08-19T06:19:19;98851.91;;;20.21;69.26
69200;BME280;56313;49.804;9.952;2022-08-19T06:21:46;98852.78;;;20.33;68.95
69200;BME280;56313;49.804;9.952;2022-08-19T06:24:13;98849.34;;;20.45;69.52
69200;BME280;56313;49.804;9.952;2022-08-19T06:26:41;98858.16;;;20.45;68.49
69200;BME280;56313;49.804;9.952;2022-08-19T06:29:08;98852.47;;;20.60;68.21
69200;BME280;56313;49.804;9.952;2022-08-19T06:31:34;98854.75;;;20.57;68.22
69200;BME280;56313;49.804;9.952;2022-08-19T06:34:00;98860.63;;;20.77;70.12
69200;BME280;56313;49.804;9.952;2022-08-19T06:36:28;98856.34;;;20.76;67.40
69200;BME280;56313;49.804;9.952;2022-08-19T06:38:57;98867.22;;;20.94;67.02
69200;BME280;56313;49.804;9.952;2022-08-19T06:41:22;98871.56;;;20.88;67.62
69200;BME280;56313;49.804;9.952;2022-08-19T06:43:48;98868.41;;;20.98;66.93
69200;BME280;56313;49.804;9.952;2022-08-19T06:46:14;98871.59;;;20.69;67.93
69200;BME280;56313;49.804;9.952;2022-08-19T06:48:40;98878.00;;;20.99;66.96
69200;BME280;56313;49.804;9.952;2022-08-19T06:51:06;98886.81;;;20.99;67.11
69200;BME280;56313;49.804;9.952;2022-08-19T06:53:31;98881.63;;;21.05;68.23
69200;BME280;56313;49.804;9.952;2022-08-19T06:55:56;98884.63;;;20.59;68.26
69200;BME280;56313;49.804;9.952;2022-08-19T06:58:25;98885.72;;;20.70;67.73
69200;BME280;56313;49.804;9.952;2022-08-19T07:00:50;98886.31;;;20.91;67.33
69200;BME280;56313;49.804;9.952;2022-08-19T07:03:16;98880.81;;;21.47;66.09
69200;BME280;56313;49.804;9.952;2022-08-19T07:05:41;98881.84;;;21.46;66.97
69200;BME280;56313;49.804;9.952;2022-08-19T07:08:07;98877.94;;;21.18;66.11
69200;BME280;56313;49.804;9.952;2022-08-19T07:10:32;98890.97;;;21.26;66.45
69200;BME280;56313;49.804;9.952;2022-08-19T07:12:59;98895.97;;;21.34;65.83
69200;BME280;56313;49.804;9.952;2022-08-19T07:15:25;98896.78;;;21.04;66.97
69200;BME280;56313;49.804;9.952;2022-08-19T07:17:50;98888.13;;;21.39;67.65
69200;BME280;56313;49.804;9.952;2022-08-19T07:20:16;98883.81;;;21.38;66.07
69200;BME280;56313;49.804;9.952;2022-08-19T07:22:41;98880.16;;;21.21;66.82
69200;BME280;56313;49.804;9.952;2022-08-19T07:25:08;98880.63;;;21.18;66.78
69200;BME280;56313;49.804;9.952;2022-08-19T07:27:33;98883.69;;;21.33;66.50
69200;BME280;56313;49.804;9.952;2022-08-19T07:29:59;98879.47;;;21.68;65.31
69200;BME280;56313;49.804;9.952;2022-08-19T07:32:24;98886.88;;;21.66;67.22
69200;BME280;56313;49.804;9.952;2022-08-19T07:34:57;98887.59;;;21.73;65.17
69200;BME280;56313;49.804;9.952;2022-08-19T07:37:22;98896.38;;;21.62;65.88
69200;BME280;56313;49.804;9.952;2022-08-19T07:39:48;98898.59;;;21.22;66.73
69200;BME280;56313;49.804;9.952;2022-08-19T07:42:13;98894.19;;;21.28;66.63
69200;BME280;56313;49.804;9.952;2022-08-19T07:44:39;98902.56;;;21.32;66.69
69200;BME280;56313;49.804;9.952;2022-08-19T07:47:05;98897.47;;;21.30;66.87
69200;BME280;56313;49.804;9.952;2022-08-19T07:49:32;98900.13;;;21.30;66.61
69200;BME280;56313;49.804;9.952;2022-08-19T07:51:59;98902.41;;;21.26;66.88
69200;BME280;56313;49.804;9.952;2022-08-19T07:54:27;98890.16;;;21.25;67.22
69200;BME280;56313;49.804;9.952;2022-08-19T07:56:52;98897.72;;;21.41;67.53
69200;BME280;56313;49.804;9.952;2022-08-19T07:59:21;98901.22;;;21.41;66.25
69200;BME280;56313;49.804;9.952;2022-08-19T08:01:47;98899.69;;;21.45;66.29
69200;BME280;56313;49.804;9.952;2022-08-19T08:04:12;98906.44;;;21.60;65.99
69200;BME280;56313;49.804;9.952;2022-08-19T08:06:56;98897.25;;;21.44;66.67
69200;BME280;56313;49.804;9.952;2022-08-19T08:09:41;98895.19;;;21.58;66.05
69200;BME280;56313;49.804;9.952;2022-08-19T08:12:28;98897.06;;;21.57;66.26
69200;BME280;56313;49.804;9.952;2022-08-19T08:14:54;98897.25;;;21.86;65.37
69200;BME280;56313;49.804;9.952;2022-08-19T08:17:20;98899.53;;;21.83;65.29
69200;BME280;56313;49.804;9.952;2022-08-19T08:19:46;98896.66;;;21.96;64.77
69200;BME280;56313;49.804;9.952;2022-08-19T08:22:14;98895.88;;;22.20;64.25
69200;BME280;56313;49.804;9.952;2022-08-19T08:25:04;98902.09;;;22.37;64.25
69200;BME280;56313;49.804;9.952;2022-08-19T08:27:29;98908.38;;;22.31;63.88
69200;BME280;56313;49.804;9.952;2022-08-19T08:29:56;98916.97;;;22.21;63.69
69200;BME280;56313;49.804;9.952;2022-08-19T08:32:21;98909.28;;;22.49;62.88
69200;BME280;56313;49.804;9.952;2022-08-19T08:34:46;98913.09;;;22.53;62.92
69200;BME280;56313;49.804;9.952;2022-08-19T08:37:12;98914.84;;;22.47;62.78
69200;BME280;56313;49.804;9.952;2022-08-19T08:39:39;98917.16;;;22.44;62.93
69200;BME280;56313;49.804;9.952;2022-08-19T08:45:01;98919.13;;;22.36;62.75
69200;BME280;56313;49.804;9.952;2022-08-19T08:47:32;98920.66;;;22.32;62.92
69200;BME280;56313;49.804;9.952;2022-08-19T08:50:10;98917.28;;;22.37;63.11
69200;BME280;56313;49.804;9.952;2022-08-19T08:52:43;98909.13;;;22.56;62.26
69200;BME280;56313;49.804;9.952;2022-08-19T08:55:11;98923.44;;;22.61;61.77
69200;BME280;56313;49.804;9.952;2022-08-19T09:00:04;98918.22;;;22.96;61.22
69200;BME280;56313;49.804;9.952;2022-08-19T09:02:31;98921.56;;;22.62;60.95
69200;BME280;56313;49.804;9.952;2022-08-19T09:04:56;98919.13;;;22.72;60.89
69200;BME280;56313;49.804;9.952;2022-08-19T09:09:48;98917.34;;;22.78;60.57
69200;BME280;56313;49.804;9.952;2022-08-19T09:14:49;98918.66;;;22.75;60.49
69200;BME280;56313;49.804;9.952;2022-08-19T09:17:16;98915.22;;;22.63;60.75
69200;BME280;56313;49.804;9.952;2022-08-19T09:22:33;98914.81;;;22.71;61.08
69200;BME280;56313;49.804;9.952;2022-08-19T09:24:59;98916.00;;;22.63;61.19
69200;BME280;56313;49.804;9.952;2022-08-19T09:27:25;98915.53;;;22.43;61.90
69200;BME280;56313;49.804;9.952;2022-08-19T09:29:51;98911.72;;;22.38;61.87
69200;BME280;56313;49.804;9.952;2022-08-19T09:32:16;98911.94;;;22.61;61.73
69200;BME280;56313;49.804;9.952;2022-08-19T09:34:43;98909.25;;;22.73;61.07
69200;BME280;56313;49.804;9.952;2022-08-19T09:37:08;98908.09;;;22.81;60.61
69200;BME280;56313;49.804;9.952;2022-08-19T09:39:34;98903.41;;;22.88;60.67
69200;BME280;56313;49.804;9.952;2022-08-19T09:41:59;98896.91;;;22.84;60.52
69200;BME280;56313;49.804;9.952;2022-08-19T09:44:24;98893.28;;;22.90;60.48
69200;BME280;56313;49.804;9.952;2022-08-19T09:46:50;98892.06;;;22.81;60.83
69200;BME280;56313;49.804;9.952;2022-08-19T09:49:16;98892.13;;;23.15;59.81
69200;BME280;56313;49.804;9.952;2022-08-19T09:51:42;98891.00;;;23.11;60.03
69200;BME280;56313;49.804;9.952;2022-08-19T09:54:07;98884.44;;;23.01;60.96
69200;BME280;56313;49.804;9.952;2022-08-19T09:56:34;98899.72;;;22.77;60.48
69200;BME280;56313;49.804;9.952;2022-08-19T09:59:00;98900.41;;;22.84;60.77
69200;BME280;56313;49.804;9.952;2022-08-19T10:01:26;98896.91;;;22.84;60.78
69200;BME280;56313;49.804;9.952;2022-08-19T10:03:53;98898.84;;;22.59;61.53
69200;BME280;56313;49.804;9.952;2022-08-19T10:06:20;98901.91;;;22.80;60.76
69200;BME280;56313;49.804;9.952;2022-08-19T10:08:46;98906.59;;;22.49;61.48
69200;BME280;56313;49.804;9.952;2022-08-19T10:11:11;98913.38;;;22.93;60.20
69200;BME280;56313;49.804;9.952;2022-08-19T10:13:39;98921.25;;;22.99;59.65
69200;BME280;56313;49.804;9.952;2022-08-19T10:16:05;98909.03;;;23.03;59.58
69200;BME280;56313;49.804;9.952;2022-08-19T10:18:31;98916.53;;;23.19;60.73
69200;BME280;56313;49.804;9.952;2022-08-19T10:21:03;98913.94;;;23.24;59.23
69200;BME280;56313;49.804;9.952;2022-08-19T10:23:32;98916.38;;;22.96;58.25
69200;BME280;56313;49.804;9.952;2022-08-19T10:25:59;98913.50;;;22.86;58.72
69200;BME280;56313;49.804;9.952;2022-08-19T10:28:24;98911.94;;;22.73;60.28
69200;BME280;56313;49.804;9.952;2022-08-19T10:30:50;98904.91;;;22.84;59.00
69200;BME280;56313;49.804;9.952;2022-08-19T10:33:15;98906.50;;;23.26;56.92
69200;BME280;56313;49.804;9.952;2022-08-19T10:35:40;98912.50;;;23.33;56.73
69200;BME280;56313;49.804;9.952;2022-08-19T10:38:05;98906.31;;;23.15;57.17
69200;BME280;56313;49.804;9.952;2022-08-19T10:40:31;98902.13;;;22.90;60.36
69200;BME280;56313;49.804;9.952;2022-08-19T10:42:56;98901.88;;;23.21;56.31
69200;BME280;56313;49.804;9.952;2022-08-19T10:45:22;98907.50;;;23.08;57.67
69200;BME280;56313;49.804;9.952;2022-08-19T10:47:49;98906.09;;;23.34;54.98
69200;BME280;56313;49.804;9.952;2022-08-19T10:50:15;98903.81;;;23.55;56.85
69200;BME280;56313;49.804;9.952;2022-08-19T10:53:02;98902.66;;;23.51;57.18
69200;BME280;56313;49.804;9.952;2022-08-19T10:55:33;98904.47;;;23.33;54.07
69200;BME280;56313;49.804;9.952;2022-08-19T10:58:17;98898.72;;;23.71;52.94
69200;BME280;56313;49.804;9.952;2022-08-19T11:00:51;98904.44;;;23.45;57.80
69200;BME280;56313;49.804;9.952;2022-08-19T11:03:18;98906.50;;;23.72;52.69
69200;BME280;56313;49.804;9.952;2022-08-19T11:05:43;98903.56;;;23.91;51.99
69200;BME280;56313;49.804;9.952;2022-08-19T11:08:08;98889.41;;;23.90;53.40
69200;BME280;56313;49.804;9.952;2022-08-19T11:10:37;98887.94;;;23.83;52.25
69200;BME280;56313;49.804;9.952;2022-08-19T11:13:05;98885.59;;;23.69;52.53
69200;BME280;56313;49.804;9.952;2022-08-19T11:15:31;98897.97;;;23.58;52.03
69200;BME280;56313;49.804;9.952;2022-08-19T11:17:58;98884.78;;;23.69;52.14
69200;BME280;56313;49.804;9.952;2022-08-19T11:20:23;98885.59;;;23.23;57.60
69200;BME280;56313;49.804;9.952;2022-08-19T11:22:48;98894.03;;;23.61;52.24
69200;BME280;56313;49.804;9.952;2022-08-19T11:25:15;98902.59;;;23.63;53.03
69200;BME280;56313;49.804;9.952;2022-08-19T11:27:41;98892.16;;;23.61;53.24
69200;BME280;56313;49.804;9.952;2022-08-19T11:30:08;98898.97;;;23.69;53.64
69200;BME280;56313;49.804;9.952;2022-08-19T11:32:33;98897.16;;;23.40;56.21
69200;BME280;56313;49.804;9.952;2022-08-19T11:34:59;98890.53;;;23.60;52.12
69200;BME280;56313;49.804;9.952;2022-08-19T11:37:24;98885.84;;;23.67;52.16
69200;BME280;56313;49.804;9.952;2022-08-19T11:39:49;98882.91;;;23.69;52.88
69200;BME280;56313;49.804;9.952;2022-08-19T11:42:15;98884.94;;;23.62;53.11
69200;BME280;56313;49.804;9.952;2022-08-19T11:44:58;98893.34;;;23.88;51.61
69200;BME280;56313;49.804;9.952;2022-08-19T11:47:24;98887.69;;;23.67;53.34
69200;BME280;56313;49.804;9.952;2022-08-19T11:49:49;98883.78;;;24.09;53.19
69200;BME280;56313;49.804;9.952;2022-08-19T11:52:14;98879.00;;;23.94;51.71
69200;BME280;56313;49.804;9.952;2022-08-19T11:54:40;98876.84;;;23.74;54.10
69200;BME280;56313;49.804;9.952;2022-08-19T11:57:05;98879.44;;;23.86;50.82
69200;BME280;56313;49.804;9.952;2022-08-19T11:59:30;98867.81;;;24.14;49.68
69200;BME280;56313;49.804;9.952;2022-08-19T12:01:55;98864.88;;;24.16;49.23
69200;BME280;56313;49.804;9.952;2022-08-19T12:04:22;98863.53;;;24.36;53.33
69200;BME280;56313;49.804;9.952;2022-08-19T12:06:47;98855.53;;;24.86;47.15
69200;BME280;56313;49.804;9.952;2022-08-19T12:09:13;98855.25;;;24.60;48.26
69200;BME280;56313;49.804;9.952;2022-08-19T12:11:39;98866.69;;;24.77;47.14
69200;BME280;56313;49.804;9.952;2022-08-19T12:14:05;98876.31;;;24.51;47.79
69200;BME280;56313;49.804;9.952;2022-08-19T12:16:30;98868.53;;;24.49;47.43
69200;BME280;56313;49.804;9.952;2022-08-19T12:18:57;98870.22;;;24.55;47.84
69200;BME280;56313;49.804;9.952;2022-08-19T12:21:28;98872.69;;;24.40;48.54
69200;BME280;56313;49.804;9.952;2022-08-19T12:23:54;98869.09;;;24.12;50.46
69200;BME280;56313;49.804;9.952;2022-08-19T12:26:20;98871.22;;;24.10;53.67
69200;BME280;56313;49.804;9.952;2022-08-19T12:28:45;98865.78;;;24.44;48.81
69200;BME280;56313;49.804;9.952;2022-08-19T12:31:13;98867.78;;;24.76;48.17
69200;BME280;56313;49.804;9.952;2022-08-19T12:33:39;98867.47;;;24.50;47.52
69200;BME280;56313;49.804;9.952;2022-08-19T12:36:05;98865.22;;;24.64;47.09
69200;BME280;56313;49.804;9.952;2022-08-19T12:38:31;98869.59;;;24.48;48.12
69200;BME280;56313;49.804;9.952;2022-08-19T12:40:57;98871.13;;;24.66;47.56
69200;BME280;56313;49.804;9.952;2022-08-19T12:43:23;98875.94;;;24.42;48.81
69200;BME280;56313;49.804;9.952;2022-08-19T12:45:48;98868.59;;;24.32;48.69
69200;BME280;56313;49.804;9.952;2022-08-19T12:48:13;98888.34;;;23.91;53.54
69200;BME280;56313;49.804;9.952;2022-08-19T12:50:43;98887.50;;;24.08;54.77
69200;BME280;56313;49.804;9.952;2022-08-19T12:53:10;98891.19;;;24.41;49.04
69200;BME280;56313;49.804;9.952;2022-08-19T12:55:35;98884.25;;;24.46;52.37
69200;BME280;56313;49.804;9.952;2022-08-19T12:58:00;98879.72;;;24.46;48.89
69200;BME280;56313;49.804;9.952;2022-08-19T13:00:27;98887.19;;;24.89;47.00
69200;BME280;56313;49.804;9.952;2022-08-19T13:02:52;98882.19;;;24.75;49.49
69200;BME280;56313;49.804;9.952;2022-08-19T13:05:19;98898.94;;;24.03;52.68
69200;BME280;56313;49.804;9.952;2022-08-19T13:07:48;98894.09;;;24.00;48.67
69200;BME280;56313;49.804;9.952;2022-08-19T13:10:14;98886.19;;;23.71;55.61
69200;BME280;56313;49.804;9.952;2022-08-19T13:12:40;98888.78;;;24.05;51.32
69200;BME280;56313;49.804;9.952;2022-08-19T13:15:06;98890.19;;;24.08;52.26